createdAt,value
2023-02-15T00:01:48.864Z,4.87
2023-02-15T00:04:18.707Z,4.13
2023-02-15T00:06:47.363Z,2.50
2023-02-15T00:09:15.883Z,5.13
2023-02-15T00:11:51.812Z,7.33
2023-02-15T00:14:22.448Z,10.50
2023-02-15T00:16:51.579Z,6.90
2023-02-15T00:19:21.108Z,5.10
2023-02-15T00:21:50.117Z,3.90
2023-02-15T00:24:19.558Z,5.60
2023-02-15T00:26:48.697Z,7.27
2023-02-15T00:29:18.127Z,2.70
2023-02-15T00:31:49.275Z,1.20
2023-02-15T00:34:18.628Z,3.27
2023-02-15T00:36:47.266Z,5.87
2023-02-15T00:39:15.807Z,8.97
2023-02-15T00:41:44.501Z,5.40
2023-02-15T00:44:12.925Z,6.47
2023-02-15T00:46:41.505Z,2.13
2023-02-15T00:49:11.569Z,6.13
2023-02-15T00:51:40.435Z,4.03
2023-02-15T00:54:08.960Z,2.67
2023-02-15T00:56:37.471Z,2.90
2023-02-15T00:59:05.908Z,4.30
2023-02-15T01:01:34.362Z,5.03
2023-02-15T01:04:02.907Z,1.47
2023-02-15T01:06:32.794Z,6.50
2023-02-15T01:09:01.258Z,3.80
2023-02-15T01:11:29.649Z,5.80
2023-02-15T01:13:58.995Z,1.80
2023-02-15T01:16:28.820Z,4.07
2023-02-15T01:18:57.662Z,3.93
2023-02-15T01:21:27.307Z,3.23
2023-02-15T01:23:57.138Z,3.10
2023-02-15T01:26:25.543Z,3.73
2023-02-15T01:28:53.941Z,1.57
2023-02-15T01:31:23.939Z,7.37
2023-02-15T01:33:52.624Z,5.10
2023-02-15T01:36:21.152Z,4.33
2023-02-15T01:38:50.450Z,1.73
2023-02-15T01:41:24.357Z,4.80
2023-02-15T01:43:54.526Z,1.60
2023-02-15T01:46:24.910Z,1.13
2023-02-15T01:48:55.205Z,8.00
2023-02-15T01:51:24.994Z,2.73
2023-02-15T01:53:54.701Z,3.63
2023-02-15T01:56:25.357Z,1.20
2023-02-15T01:58:56.225Z,4.17
2023-02-15T02:01:25.237Z,3.60
2023-02-15T02:03:59.765Z,4.47
2023-02-15T02:06:28.877Z,2.47
2023-02-15T02:08:57.654Z,2.60
2023-02-15T02:11:28.542Z,3.83
2023-02-15T02:13:57.951Z,6.30
2023-02-15T02:16:28.276Z,4.30
2023-02-15T02:19:01.685Z,3.47
2023-02-15T02:21:48.992Z,7.07
2023-02-15T02:24:32.213Z,5.27
2023-02-15T02:27:21.547Z,6.77
2023-02-15T02:30:05.642Z,5.93
2023-02-15T02:32:49.228Z,5.63
2023-02-15T02:35:21.724Z,4.70
2023-02-15T02:37:53.422Z,1.77
2023-02-15T02:40:26.267Z,3.73
2023-02-15T02:43:01.834Z,5.13
2023-02-15T02:45:34.263Z,2.70
2023-02-15T02:48:04.630Z,3.27
2023-02-15T02:50:34.568Z,5.33
2023-02-15T02:53:02.946Z,4.83
2023-02-15T02:55:33.046Z,4.30
2023-02-15T02:58:04.873Z,6.40
2023-02-15T03:00:34.784Z,16.10
2023-02-15T03:03:06.158Z,3.27
2023-02-15T03:05:36.824Z,5.20
2023-02-15T03:08:10.711Z,4.87
2023-02-15T03:10:39.882Z,2.07
2023-02-15T03:13:08.418Z,0.80
2023-02-15T03:15:56.901Z,2.03
2023-02-15T03:18:27.482Z,5.60
2023-02-15T03:20:58.020Z,4.33
2023-02-15T03:23:28.532Z,3.40
2023-02-15T03:26:00.211Z,4.90
2023-02-15T03:28:31.653Z,4.43
2023-02-15T03:31:02.332Z,5.17
2023-02-15T03:33:31.524Z,6.03
2023-02-15T03:36:05.224Z,6.70
2023-02-15T03:38:36.878Z,8.73
2023-02-15T03:41:12.225Z,8.57
2023-02-15T03:43:44.412Z,5.03
2023-02-15T03:46:15.622Z,4.13
2023-02-15T03:48:47.513Z,7.70
2023-02-15T03:51:39.105Z,6.77
2023-02-15T03:54:10.189Z,3.20
2023-02-15T03:56:39.765Z,2.90
2023-02-15T03:59:25.569Z,3.93
2023-02-15T04:02:01.150Z,5.67
2023-02-15T04:04:32.580Z,2.57
2023-02-15T04:07:02.345Z,24.67
2023-02-15T04:09:48.400Z,10.00
2023-02-15T04:12:16.752Z,14.33
2023-02-15T04:15:02.612Z,6.07
2023-02-15T04:17:31.242Z,1.93
2023-02-15T04:20:17.186Z,7.20
2023-02-15T04:23:04.514Z,4.07
2023-02-15T04:25:32.899Z,2.30
2023-02-15T04:28:01.354Z,4.20
2023-02-15T04:30:29.811Z,3.17
2023-02-15T04:32:58.591Z,5.10
2023-02-15T04:35:27.755Z,2.70
2023-02-15T04:37:57.871Z,3.17
2023-02-15T04:40:26.260Z,3.17
2023-02-15T04:42:54.616Z,4.10
2023-02-15T04:45:23.124Z,7.20
2023-02-15T04:47:51.577Z,5.00
2023-02-15T04:50:20.075Z,3.90
2023-02-15T04:52:48.464Z,3.13
2023-02-15T04:55:18.335Z,3.80
2023-02-15T04:57:49.839Z,1.93
2023-02-15T05:00:18.733Z,3.27
2023-02-15T05:02:47.156Z,3.40
2023-02-15T05:05:16.211Z,1.57
2023-02-15T05:07:44.649Z,2.03
2023-02-15T05:10:13.148Z,4.40
2023-02-15T05:12:42.921Z,6.23
2023-02-15T05:15:12.041Z,3.23
2023-02-15T05:17:40.533Z,4.63
2023-02-15T05:20:09.477Z,3.37
2023-02-15T05:22:37.887Z,5.87
2023-02-15T05:25:26.443Z,3.20
2023-02-15T05:28:13.956Z,5.07
2023-02-15T05:30:42.508Z,2.43
2023-02-15T05:33:11.039Z,0.77
2023-02-15T05:35:39.460Z,3.43
2023-02-15T05:38:07.834Z,3.73
2023-02-15T05:40:36.369Z,3.33
2023-02-15T05:43:06.180Z,1.00
2023-02-15T05:45:34.574Z,1.53
2023-02-15T05:48:03.050Z,2.23
2023-02-15T05:50:31.630Z,4.60
2023-02-15T05:53:00.140Z,3.30
2023-02-15T05:55:28.586Z,14.37
2023-02-15T05:57:56.972Z,20.23
2023-02-15T06:00:27.052Z,14.73
2023-02-15T06:02:55.429Z,37.70
2023-02-15T06:05:24.049Z,43.13
2023-02-15T06:07:52.458Z,41.67
2023-02-15T06:10:21.287Z,36.00
2023-02-15T06:12:49.698Z,47.13
2023-02-15T06:15:18.120Z,52.23
2023-02-15T06:17:47.925Z,37.07
2023-02-15T06:20:16.378Z,45.77
2023-02-15T06:22:44.861Z,60.80
2023-02-15T06:25:13.405Z,45.87
2023-02-15T06:27:43.936Z,26.33
2023-02-15T06:30:13.085Z,71.57
2023-02-15T06:32:42.325Z,65.53
2023-02-15T06:35:12.582Z,69.80
2023-02-15T06:37:41.233Z,55.57
2023-02-15T06:40:10.317Z,56.60
2023-02-15T06:42:38.779Z,49.33
2023-02-15T06:45:08.479Z,60.07
2023-02-15T06:47:37.047Z,53.57
2023-02-15T06:50:05.886Z,39.47
2023-02-15T06:52:35.873Z,63.70
2023-02-15T06:55:04.285Z,59.70
2023-02-15T06:57:33.391Z,49.87
2023-02-15T07:00:02.274Z,54.83
2023-02-15T07:02:30.930Z,58.27
2023-02-15T07:04:59.453Z,45.33
2023-02-15T07:07:27.992Z,48.77
2023-02-15T07:09:57.721Z,48.73
2023-02-15T07:12:43.578Z,46.73
2023-02-15T07:15:12.208Z,47.97
2023-02-15T07:17:40.670Z,61.53
2023-02-15T07:20:10.350Z,56.87
2023-02-15T07:22:38.769Z,27.43
2023-02-15T07:25:10.290Z,37.03
2023-02-15T07:27:39.028Z,32.27
2023-02-15T07:30:08.636Z,46.73
2023-02-15T07:32:37.256Z,40.10
2023-02-15T07:35:05.851Z,34.13
2023-02-15T07:37:34.325Z,41.27
2023-02-15T07:40:02.861Z,34.23
2023-02-15T07:42:34.604Z,32.37
2023-02-15T07:45:03.055Z,29.10
2023-02-15T07:47:32.888Z,17.60
2023-02-15T07:50:01.443Z,32.43
2023-02-15T07:52:30.054Z,20.90
2023-02-15T07:54:58.654Z,41.07
2023-02-15T07:57:27.258Z,47.90
2023-02-15T07:59:57.217Z,40.03
2023-02-15T08:02:27.120Z,39.63
2023-02-15T08:04:55.710Z,25.83
2023-02-15T08:07:24.329Z,44.33
2023-02-15T08:09:52.883Z,48.37
2023-02-15T08:12:21.380Z,33.33
2023-02-15T08:14:50.166Z,30.07
2023-02-15T08:17:20.189Z,39.53
2023-02-15T08:19:48.870Z,38.90
2023-02-15T08:22:17.828Z,45.80
2023-02-15T08:24:46.403Z,43.43
2023-02-15T08:27:15.063Z,45.93
2023-02-15T08:29:44.133Z,37.13
2023-02-15T08:32:13.919Z,41.07
2023-02-15T08:34:44.340Z,44.57
2023-02-15T08:37:12.912Z,29.53
2023-02-15T08:39:42.828Z,45.30
2023-02-15T08:42:11.637Z,46.07
2023-02-15T08:44:40.144Z,49.23
2023-02-15T08:47:08.643Z,43.60
2023-02-15T08:49:37.115Z,27.33
2023-02-15T08:52:08.091Z,41.60
2023-02-15T08:54:36.656Z,42.23
2023-02-15T08:57:05.186Z,43.03
2023-02-15T08:59:33.760Z,34.30
2023-02-15T09:02:04.074Z,34.47
2023-02-15T09:04:32.666Z,45.53
2023-02-15T09:07:01.284Z,44.13
2023-02-15T09:09:32.433Z,44.30
2023-02-15T09:12:01.036Z,38.20
2023-02-15T09:14:30.019Z,44.77
2023-02-15T09:16:58.776Z,41.53
2023-02-15T09:19:33.622Z,39.30
2023-02-15T09:22:02.166Z,19.57
2023-02-15T09:24:46.155Z,43.80
2023-02-15T09:27:14.739Z,28.93
2023-02-15T09:29:43.339Z,30.97
2023-02-15T09:32:18.627Z,35.07
2023-02-15T09:34:49.697Z,34.27
2023-02-15T09:37:18.405Z,35.80
2023-02-15T09:39:49.263Z,25.63
2023-02-15T09:42:34.149Z,30.83
2023-02-15T09:45:06.070Z,27.23
2023-02-15T09:47:44.909Z,26.00
2023-02-15T09:50:17.755Z,36.37
2023-02-15T09:52:54.958Z,21.03
2023-02-15T09:55:32.595Z,34.20
2023-02-15T09:58:06.362Z,42.90
2023-02-15T10:00:39.973Z,41.70
2023-02-15T10:03:16.322Z,33.47
2023-02-15T10:05:51.124Z,35.30
2023-02-15T10:08:37.757Z,27.90
2023-02-15T10:11:29.791Z,26.97
2023-02-15T10:14:06.035Z,31.10
2023-02-15T10:16:42.387Z,35.70
2023-02-15T10:19:13.476Z,35.40
2023-02-15T10:21:49.652Z,43.43
2023-02-15T10:24:24.357Z,35.90
2023-02-15T10:26:55.603Z,41.43
2023-02-15T10:29:30.450Z,25.23
2023-02-15T10:32:02.793Z,29.07
2023-02-15T10:34:35.484Z,20.23
2023-02-15T10:37:18.816Z,43.07
2023-02-15T10:39:52.957Z,44.53
2023-02-15T10:42:29.631Z,29.93
2023-02-15T10:45:05.139Z,27.93
2023-02-15T10:47:41.631Z,25.23
2023-02-15T10:50:20.174Z,28.47
2023-02-15T10:52:56.677Z,20.83
2023-02-15T10:55:31.497Z,29.27
2023-02-15T10:58:04.982Z,40.07
2023-02-15T11:00:40.071Z,33.77
2023-02-15T11:03:23.034Z,30.53
2023-02-15T11:05:55.970Z,26.53
2023-02-15T11:08:26.348Z,28.70
2023-02-15T11:10:57.925Z,29.70
2023-02-15T11:13:29.818Z,32.93
2023-02-15T11:16:00.202Z,32.57
2023-02-15T11:18:31.007Z,36.97
2023-02-15T11:21:02.930Z,37.63
2023-02-15T11:23:31.814Z,35.33
2023-02-15T11:26:03.137Z,34.90
2023-02-15T11:28:35.071Z,29.20
2023-02-15T11:31:06.200Z,12.43
2023-02-15T11:33:38.645Z,11.67
2023-02-15T11:36:08.485Z,5.57
2023-02-15T11:38:40.457Z,23.80
2023-02-15T11:41:12.151Z,14.60
2023-02-15T11:43:45.834Z,33.87
2023-02-15T11:46:16.211Z,30.57
2023-02-15T11:48:45.372Z,33.20
2023-02-15T11:51:17.090Z,31.30
2023-02-15T11:53:46.263Z,29.60
2023-02-15T11:56:17.483Z,20.33
2023-02-15T11:58:48.589Z,38.67
2023-02-15T12:01:19.545Z,29.97
2023-02-15T12:03:50.862Z,34.13
2023-02-15T12:06:22.750Z,39.33
2023-02-15T12:08:54.488Z,38.10
2023-02-15T12:11:25.156Z,25.33
2023-02-15T12:13:59.050Z,30.20
2023-02-15T12:16:28.773Z,32.03
2023-02-15T12:18:58.967Z,32.17
2023-02-15T12:21:31.226Z,22.90
2023-02-15T12:24:01.343Z,25.17
2023-02-15T12:26:30.900Z,16.43
2023-02-15T12:29:03.461Z,16.33
2023-02-15T12:31:53.071Z,12.57
2023-02-15T12:34:25.924Z,28.63
2023-02-15T12:36:58.948Z,30.33
2023-02-15T12:39:28.670Z,13.10
2023-02-15T12:42:02.667Z,33.50
2023-02-15T12:44:33.980Z,33.10
2023-02-15T12:47:04.795Z,30.67
2023-02-15T12:49:34.748Z,32.40
2023-02-15T12:52:04.842Z,6.93
2023-02-15T12:54:41.286Z,7.13
2023-02-15T12:57:31.100Z,16.77
2023-02-15T13:00:15.748Z,11.07
2023-02-15T13:03:02.601Z,9.27
2023-02-15T13:05:45.845Z,6.80
2023-02-15T13:08:16.211Z,7.70
2023-02-15T13:10:46.235Z,16.70
2023-02-15T13:13:21.948Z,15.03
2023-02-15T13:15:53.689Z,13.33
2023-02-15T13:18:25.336Z,14.83
2023-02-15T13:20:54.730Z,11.67
2023-02-15T13:23:28.398Z,7.20
2023-02-15T13:25:58.432Z,6.57
2023-02-15T13:28:29.679Z,7.70
2023-02-15T13:30:59.907Z,10.80
2023-02-15T13:33:32.743Z,12.60
2023-02-15T13:36:04.932Z,19.37
2023-02-15T13:38:48.158Z,20.43
2023-02-15T13:41:19.278Z,30.30
2023-02-15T13:44:01.955Z,35.40
2023-02-15T13:46:55.810Z,27.07
2023-02-15T13:49:48.643Z,21.90
2023-02-15T13:52:25.036Z,5.60
2023-02-15T13:55:00.676Z,9.47
2023-02-15T13:57:43.809Z,6.30
2023-02-15T14:00:17.635Z,7.53
2023-02-15T14:03:00.444Z,18.60
2023-02-15T14:05:37.651Z,17.33
2023-02-15T14:08:11.994Z,9.53
2023-02-15T14:10:54.120Z,5.97
2023-02-15T14:13:52.801Z,7.97
2023-02-15T14:16:28.717Z,10.10
2023-02-15T14:19:07.310Z,10.80
2023-02-15T14:21:39.655Z,11.40
2023-02-15T14:24:16.852Z,15.13
2023-02-15T14:26:50.397Z,12.47
2023-02-15T14:29:22.015Z,3.97
2023-02-15T14:31:52.578Z,20.93
2023-02-15T14:34:24.311Z,19.67
2023-02-15T14:36:54.440Z,18.67
2023-02-15T14:39:50.521Z,22.23
2023-02-15T14:42:24.143Z,10.47
2023-02-15T14:44:55.785Z,9.53
2023-02-15T14:47:28.890Z,12.27
2023-02-15T14:49:57.491Z,12.10
2023-02-15T14:52:26.045Z,18.67
2023-02-15T14:55:06.518Z,5.10
2023-02-15T14:57:36.336Z,11.70
2023-02-15T15:00:35.835Z,8.70
2023-02-15T15:03:04.516Z,10.40
2023-02-15T15:05:36.557Z,11.23
2023-02-15T15:08:06.139Z,26.07
2023-02-15T15:10:47.150Z,21.90
2023-02-15T15:13:36.587Z,13.33
2023-02-15T15:16:20.104Z,10.67
2023-02-15T15:18:50.555Z,13.43
2023-02-15T15:21:35.529Z,14.00
2023-02-15T15:24:04.897Z,11.57
2023-02-15T15:26:37.915Z,11.07
2023-02-15T15:29:06.712Z,9.13
2023-02-15T15:31:46.637Z,24.40
2023-02-15T15:34:31.175Z,9.87
2023-02-15T15:37:14.616Z,12.73
2023-02-15T15:40:16.261Z,12.20
2023-02-15T15:42:51.557Z,13.70
2023-02-15T15:45:28.965Z,23.03
2023-02-15T15:48:06.950Z,26.40
2023-02-15T15:50:36.529Z,23.07
2023-02-15T15:53:05.904Z,18.53
2023-02-15T15:55:36.390Z,11.20
2023-02-15T15:58:07.921Z,15.07
2023-02-15T16:00:39.385Z,21.73
2023-02-15T16:03:09.121Z,14.23
2023-02-15T16:05:40.194Z,16.20
2023-02-15T16:08:09.098Z,23.13
2023-02-15T16:10:39.006Z,22.43
2023-02-15T16:13:09.559Z,22.93
2023-02-15T16:15:39.776Z,24.57
2023-02-15T16:18:08.449Z,25.60
2023-02-15T16:20:38.855Z,21.60
2023-02-15T16:23:15.771Z,22.03
2023-02-15T16:25:49.206Z,15.47
2023-02-15T16:28:21.255Z,20.47
2023-02-15T16:30:57.915Z,28.50
2023-02-15T16:33:38.101Z,27.43
2023-02-15T16:36:08.982Z,29.57
2023-02-15T16:38:58.841Z,30.37
2023-02-15T16:41:28.410Z,32.33
2023-02-15T16:44:00.172Z,29.63
2023-02-15T16:46:30.757Z,22.57
2023-02-15T16:49:03.534Z,24.20
2023-02-15T16:51:32.956Z,22.80
2023-02-15T16:54:05.406Z,28.67
2023-02-15T16:56:37.294Z,23.50
2023-02-15T16:59:07.279Z,29.73
2023-02-15T17:01:39.051Z,29.23
2023-02-15T17:04:14.443Z,32.03
2023-02-15T17:07:00.122Z,27.97
2023-02-15T17:09:28.801Z,27.43
2023-02-15T17:11:58.880Z,28.77
2023-02-15T17:14:32.340Z,30.37
2023-02-15T17:17:03.495Z,30.63
2023-02-15T17:19:33.789Z,30.50
2023-02-15T17:22:04.547Z,30.33
2023-02-15T17:24:38.212Z,26.33
2023-02-15T17:27:09.345Z,30.20
2023-02-15T17:29:41.089Z,28.97
2023-02-15T17:32:16.052Z,18.87
2023-02-15T17:34:46.303Z,29.47
2023-02-15T17:37:15.296Z,27.33
2023-02-15T17:39:43.805Z,25.27
2023-02-15T17:42:12.176Z,32.73
2023-02-15T17:44:41.983Z,19.10
2023-02-15T17:47:12.511Z,33.20
2023-02-15T17:49:41.057Z,34.70
2023-02-15T17:52:12.750Z,29.90
2023-02-15T17:54:58.643Z,26.67
2023-02-15T17:57:27.088Z,31.60
2023-02-15T18:00:14.499Z,29.97
2023-02-15T18:03:00.634Z,30.20
2023-02-15T18:05:46.536Z,27.07
2023-02-15T18:08:33.300Z,27.70
2023-02-15T18:11:19.491Z,29.03
2023-02-15T18:13:48.094Z,28.60
2023-02-15T18:16:19.132Z,29.03
2023-02-15T18:18:50.997Z,28.67
2023-02-15T18:21:19.510Z,25.93
2023-02-15T18:23:47.991Z,30.80
2023-02-15T18:26:19.323Z,26.90
2023-02-15T18:28:47.828Z,31.77
2023-02-15T18:31:18.197Z,30.17
2023-02-15T18:33:48.375Z,28.07
2023-02-15T18:36:19.317Z,32.80
2023-02-15T18:38:47.754Z,34.07
2023-02-15T18:41:20.169Z,30.67
2023-02-15T18:43:49.777Z,29.00
2023-02-15T18:46:19.856Z,27.30
2023-02-15T18:48:48.421Z,29.83
2023-02-15T18:51:23.061Z,35.20
2023-02-15T18:53:53.148Z,32.37
2023-02-15T18:56:22.599Z,29.90
2023-02-15T18:58:51.252Z,23.23
2023-02-15T19:01:21.829Z,27.77
2023-02-15T19:03:51.226Z,28.97
2023-02-15T19:06:21.168Z,7.00
2023-02-15T19:08:51.138Z,23.73
2023-02-15T19:11:20.739Z,35.83
2023-02-15T19:13:49.208Z,38.63
2023-02-15T19:16:30.060Z,28.73
2023-02-15T19:18:58.799Z,30.00
2023-02-15T19:21:27.487Z,33.03
2023-02-15T19:23:57.215Z,28.73
2023-02-15T19:26:39.668Z,23.87
2023-02-15T19:29:14.331Z,25.20
2023-02-15T19:31:44.461Z,30.93
2023-02-15T19:34:15.420Z,27.50
2023-02-15T19:36:44.433Z,31.10
2023-02-15T19:39:22.183Z,26.13
2023-02-15T19:41:50.649Z,16.70
2023-02-15T19:44:19.134Z,19.87
2023-02-15T19:46:48.979Z,28.47
2023-02-15T19:49:17.404Z,16.17
2023-02-15T19:51:46.042Z,25.33
2023-02-15T19:54:29.387Z,24.73
2023-02-15T19:56:58.000Z,26.30
2023-02-15T19:59:27.278Z,29.20
2023-02-15T20:01:57.203Z,21.73
2023-02-15T20:04:25.948Z,20.13
2023-02-15T20:06:56.337Z,14.53
2023-02-15T20:09:26.010Z,31.30
2023-02-15T20:11:54.821Z,23.13
2023-02-15T20:14:23.746Z,29.17
2023-02-15T20:16:52.281Z,21.93
2023-02-15T20:19:22.428Z,24.43
2023-02-15T20:21:54.392Z,24.83
2023-02-15T20:24:23.658Z,27.27
2023-02-15T20:26:52.161Z,22.30
2023-02-15T20:29:20.860Z,24.87
2023-02-15T20:31:49.466Z,9.97
2023-02-15T20:34:17.991Z,24.93
2023-02-15T20:36:47.898Z,21.90
2023-02-15T20:39:17.566Z,6.77
2023-02-15T20:41:48.392Z,14.67
2023-02-15T20:44:19.509Z,11.07
2023-02-15T20:46:48.114Z,12.00
2023-02-15T20:49:16.561Z,15.17
2023-02-15T20:51:47.060Z,10.80
2023-02-15T20:54:18.472Z,9.90
2023-02-15T20:56:47.289Z,8.63
2023-02-15T20:59:23.775Z,14.10
2023-02-15T21:01:52.752Z,10.63
2023-02-15T21:04:21.911Z,16.33
2023-02-15T21:06:50.399Z,22.20
2023-02-15T21:09:23.411Z,19.67
2023-02-15T21:11:53.888Z,25.17
2023-02-15T21:14:23.312Z,25.57
2023-02-15T21:16:52.600Z,19.17
2023-02-15T21:19:22.106Z,25.50
2023-02-15T21:21:51.495Z,13.63
2023-02-15T21:24:22.101Z,17.37
2023-02-15T21:26:52.061Z,21.83
2023-02-15T21:29:20.841Z,11.47
2023-02-15T21:31:49.639Z,13.30
2023-02-15T21:34:18.497Z,15.50
2023-02-15T21:36:47.436Z,14.90
2023-02-15T21:39:17.188Z,21.43
2023-02-15T21:42:05.190Z,22.43
2023-02-15T21:44:52.638Z,17.00
2023-02-15T21:47:39.517Z,20.27
2023-02-15T21:50:22.847Z,18.00
2023-02-15T21:52:51.260Z,23.67
2023-02-15T21:55:19.777Z,21.30
2023-02-15T21:57:48.145Z,21.90
2023-02-15T22:00:19.873Z,18.23
2023-02-15T22:02:49.017Z,18.07
2023-02-15T22:05:18.560Z,25.70
2023-02-15T22:07:47.412Z,15.27
2023-02-15T22:10:16.107Z,7.97
2023-02-15T22:12:45.006Z,8.77
2023-02-15T22:15:21.237Z,8.73
2023-02-15T22:17:49.744Z,13.60
2023-02-15T22:20:19.227Z,24.20
2023-02-15T22:22:47.750Z,15.83
2023-02-15T22:25:16.763Z,24.90
2023-02-15T22:27:45.782Z,11.40
2023-02-15T22:30:20.404Z,18.53
2023-02-15T22:32:50.748Z,15.73
2023-02-15T22:35:20.746Z,14.80
2023-02-15T22:37:49.198Z,13.23
2023-02-15T22:40:17.984Z,9.13
2023-02-15T22:42:48.020Z,16.63
2023-02-15T22:45:18.396Z,13.17
2023-02-15T22:47:47.766Z,10.03
2023-02-15T22:50:19.310Z,15.07
2023-02-15T22:52:47.722Z,20.23
2023-02-15T22:55:16.936Z,15.03
2023-02-15T22:57:46.560Z,18.20
2023-02-15T23:00:17.608Z,20.37
2023-02-15T23:02:46.224Z,17.33
2023-02-15T23:05:21.027Z,18.50
2023-02-15T23:07:49.896Z,16.10
2023-02-15T23:10:24.851Z,10.00
2023-02-15T23:13:11.758Z,15.43
2023-02-15T23:15:40.175Z,14.20
2023-02-15T23:18:15.066Z,21.10
2023-02-15T23:20:45.190Z,15.93
2023-02-15T23:23:14.814Z,11.17
2023-02-15T23:25:43.543Z,17.17
2023-02-15T23:28:22.143Z,11.80
2023-02-15T23:30:50.628Z,17.07
2023-02-15T23:33:21.261Z,23.20
2023-02-15T23:35:51.520Z,15.00
2023-02-15T23:38:20.673Z,11.50
2023-02-15T23:41:08.951Z,8.17
2023-02-15T23:43:37.469Z,27.10
2023-02-15T23:46:06.877Z,11.47
2023-02-15T23:48:36.841Z,11.17
2023-02-15T23:51:07.078Z,23.40
2023-02-15T23:53:35.596Z,26.73
2023-02-15T23:56:04.187Z,14.93
2023-02-15T23:58:36.399Z,13.53
